Location Isle ofWight, ISLE OF WIGHT, UK

ob UISISLE1 222100Z AUTO 09000KT 06/05 A3055 RMK SLPNO 

2019.02.22 2100 UTC
Wind from the E (085 degrees) at Calm MPH ( KT) gusting to 0.0 MPH (0 KT)
Visibility    Mile(s)
Temperature 42.2 F (6 C)
Dew Point 41.4 F (5 C)
Relative Humidity 97%
Pressure   30.557 in. Hg (1035 hPa)
Rain  0.00 in.
Daily Rain 0.000 in.

Station Name  Isle of Wight Weather
Longitude, Latitude  -1.27, 50.72
Elevation 45
Station URL http://www.isleofwightweather.co.uk
Software Type WeatherDisplay:10.37R